Time;durP1;ratioP1;P1;durP2;ratioP2;P2;SDS_P1;SDS_P2;PMS_P1;PMS_P2;Temp;Humidity;BMP_temperature;BMP_pressure;BME280_temperature;BME280_humidity;BME280_pressure;Samples;Min_cycle;Max_cycle;Signal;HPM_P1;HPM_P2
2021/12/24 00:00:27;;;;;;;26.35;16.00;;;;;;;;;;4994205;28;20807;-59
2021/12/24 00:02:54;;;;;;;26.98;16.58;;;;;;;;;;4994401;28;20197;-59
2021/12/24 00:05:21;;;;;;;25.25;15.60;;;;;;;;;;4994551;28;20575;-60
2021/12/24 00:07:47;;;;;;;25.42;15.82;;;;;;;;;;4994444;28;20210;-60
2021/12/24 00:10:13;;;;;;;28.40;16.45;;;;;;;;;;4994212;28;20166;-60
2021/12/24 00:12:45;;;;;;;26.13;15.50;;;;;;;;;;4994468;28;20302;-60
2021/12/24 00:18:13;;;;;;;27.13;15.85;;;;;;;;;;4966612;28;20186;-60
2021/12/24 00:36:47;;;;;;;26.10;15.70;;;;;;;;;;4993914;28;20274;-59
2021/12/24 00:39:13;;;;;;;24.30;15.02;;;;;;;;;;4994060;28;20257;-59
2021/12/24 00:41:39;;;;;;;25.17;15.43;;;;;;;;;;4993740;28;20254;-60
2021/12/24 00:44:05;;;;;;;27.10;15.63;;;;;;;;;;4993695;28;20187;-60
2021/12/24 00:46:31;;;;;;;26.05;15.23;;;;;;;;;;4994023;28;20646;-59
2021/12/24 00:49:00;;;;;;;23.42;14.68;;;;;;;;;;4994053;28;20537;-58
2021/12/24 00:51:55;;;;;;;24.58;15.25;;;;;;;;;;4993935;28;20182;-58
2021/12/24 00:57:03;;;;;;;26.50;15.70;;;;;;;;;;4993863;28;20253;-59
2021/12/24 00:59:29;;;;;;;27.95;15.73;;;;;;;;;;4993714;28;20241;-59
2021/12/24 01:01:56;;;;;;;25.40;15.00;;;;;;;;;;4993667;28;20603;-58
2021/12/24 01:04:22;;;;;;;25.33;15.02;;;;;;;;;;4993868;28;20205;-59
2021/12/24 01:06:47;;;;;;;25.88;14.82;;;;;;;;;;4996402;28;20163;-58
2021/12/24 01:09:13;;;;;;;26.05;15.85;;;;;;;;;;4997659;28;20199;-59
2021/12/24 01:11:39;;;;;;;23.70;14.85;;;;;;;;;;4997651;28;20276;-59
2021/12/24 01:14:05;;;;;;;22.85;13.75;;;;;;;;;;4997176;28;20189;-59
2021/12/24 01:16:42;;;;;;;23.35;14.18;;;;;;;;;;4997092;28;20206;-58
2021/12/24 01:19:14;;;;;;;21.77;14.30;;;;;;;;;;4997347;28;20430;-59
2021/12/24 01:21:56;;;;;;;23.48;14.77;;;;;;;;;;4997438;28;20470;-59
2021/12/24 01:24:29;;;;;;;22.45;13.88;;;;;;;;;;4997452;28;20237;-58
2021/12/24 01:29:43;;;;;;;23.20;13.55;;;;;;;;;;4997530;28;20637;-58
2021/12/24 01:37:56;;;;;;;23.25;14.05;;;;;;;;;;4997406;28;20559;-57
2021/12/24 01:40:51;;;;;;;22.25;13.73;;;;;;;;;;4997277;28;20173;-60
2021/12/24 01:43:18;;;;;;;22.58;13.98;;;;;;;;;;4997252;28;20260;-59
2021/12/24 01:45:47;;;;;;;24.20;14.20;;;;;;;;;;4996959;28;20195;-60
2021/12/24 01:48:12;;;;;;;25.45;14.30;;;;;;;;;;4997174;28;20255;-60
2021/12/24 01:50:42;;;;;;;22.63;13.65;;;;;;;;;;4996698;28;20167;-60
2021/12/24 01:53:08;;;;;;;20.40;12.48;;;;;;;;;;4996911;28;20561;-60
2021/12/24 01:55:34;;;;;;;23.00;13.43;;;;;;;;;;4996852;28;20242;-60
2021/12/24 01:58:00;;;;;;;24.25;14.50;;;;;;;;;;4996656;28;20163;-60
2021/12/24 02:00:29;;;;;;;21.27;13.30;;;;;;;;;;4996506;28;20501;-60
2021/12/24 02:02:55;;;;;;;21.88;13.13;;;;;;;;;;4996428;28;20603;-60
2021/12/24 02:05:22;;;;;;;22.40;13.23;;;;;;;;;;4996500;28;20615;-60
2021/12/24 02:07:48;;;;;;;22.70;13.88;;;;;;;;;;4996698;28;20228;-59
2021/12/24 02:10:15;;;;;;;22.40;12.93;;;;;;;;;;4996733;28;20508;-59
2021/12/24 02:12:41;;;;;;;23.13;13.20;;;;;;;;;;4996521;28;20218;-59
2021/12/24 02:15:13;;;;;;;24.95;14.05;;;;;;;;;;4996872;28;20163;-59
2021/12/24 02:18:14;;;;;;;24.33;14.38;;;;;;;;;;4996463;28;20155;-59
2021/12/24 02:28:54;;;;;;;24.13;13.70;;;;;;;;;;4996349;28;20197;-59
2021/12/24 02:31:25;;;;;;;24.02;14.00;;;;;;;;;;4996341;28;20366;-60
2021/12/24 02:33:51;;;;;;;22.83;13.77;;;;;;;;;;4996605;28;20245;-60
2021/12/24 02:36:20;;;;;;;25.80;14.30;;;;;;;;;;4996045;28;20217;-60
2021/12/24 02:38:46;;;;;;;24.13;14.10;;;;;;;;;;4996509;28;20229;-60
2021/12/24 02:41:12;;;;;;;22.95;13.52;;;;;;;;;;4996025;28;20599;-58
2021/12/24 02:43:38;;;;;;;25.45;14.45;;;;;;;;;;4995937;28;20198;-59
2021/12/24 02:46:11;;;;;;;23.40;13.63;;;;;;;;;;4995970;28;20650;-59
2021/12/24 02:54:03;;;;;;;26.58;14.52;;;;;;;;;;4995837;28;20173;-60
2021/12/24 02:56:34;;;;;;;25.13;14.55;;;;;;;;;;4995458;28;20167;-60
2021/12/24 02:59:02;;;;;;;25.30;13.88;;;;;;;;;;4995610;28;20583;-60
2021/12/24 03:01:30;;;;;;;23.20;13.75;;;;;;;;;;4995626;28;20194;-60
2021/12/24 03:03:56;;;;;;;24.05;13.27;;;;;;;;;;4995512;28;20246;-60
2021/12/24 03:06:23;;;;;;;22.88;12.50;;;;;;;;;;4995274;28;20194;-59
2021/12/24 03:08:49;;;;;;;22.60;12.75;;;;;;;;;;4995391;28;20166;-59
2021/12/24 03:11:15;;;;;;;25.35;13.40;;;;;;;;;;4995615;28;20171;-59
2021/12/24 03:13:42;;;;;;;24.75;13.75;;;;;;;;;;4995064;28;20595;-58
2021/12/24 03:16:08;;;;;;;23.02;13.63;;;;;;;;;;4995542;28;20276;-57
2021/12/24 03:18:37;;;;;;;23.92;13.68;;;;;;;;;;4995146;28;20658;-58
2021/12/24 03:21:13;;;;;;;24.88;13.25;;;;;;;;;;4994957;28;20677;-58
2021/12/24 03:23:45;;;;;;;24.13;12.90;;;;;;;;;;4995316;28;20217;-58
2021/12/24 03:26:15;;;;;;;22.98;13.27;;;;;;;;;;4995291;28;20163;-60
2021/12/24 03:28:42;;;;;;;25.10;13.18;;;;;;;;;;4994067;28;20205;-60
2021/12/24 03:31:08;;;;;;;23.25;13.45;;;;;;;;;;4995084;28;20177;-59
2021/12/24 03:33:36;;;;;;;22.30;13.02;;;;;;;;;;4994943;28;20496;-60
2021/12/24 03:36:03;;;;;;;23.00;13.07;;;;;;;;;;4995010;28;20221;-59
2021/12/24 03:38:29;;;;;;;23.20;13.25;;;;;;;;;;4994673;28;20167;-60
2021/12/24 03:40:55;;;;;;;21.95;12.65;;;;;;;;;;4994626;28;20173;-60
2021/12/24 03:43:21;;;;;;;24.20;12.60;;;;;;;;;;4994463;28;20562;-59
2021/12/24 03:48:25;;;;;;;22.52;12.52;;;;;;;;;;4994815;28;20613;-60
2021/12/24 03:51:00;;;;;;;22.73;13.45;;;;;;;;;;4994833;28;20539;-59
2021/12/24 03:56:10;;;;;;;21.08;12.63;;;;;;;;;;4994487;28;20229;-60
2021/12/24 03:58:36;;;;;;;25.13;13.32;;;;;;;;;;4994383;28;20510;-58
2021/12/24 04:01:02;;;;;;;22.27;12.60;;;;;;;;;;4994385;28;20182;-60
2021/12/24 04:03:28;;;;;;;23.50;12.95;;;;;;;;;;4994247;28;20194;-59
2021/12/24 04:05:54;;;;;;;23.35;13.07;;;;;;;;;;4994415;28;20177;-60
2021/12/24 04:08:20;;;;;;;20.02;12.05;;;;;;;;;;4994273;28;20190;-59
2021/12/24 04:10:46;;;;;;;25.25;12.88;;;;;;;;;;4994295;28;20171;-60
2021/12/24 04:13:14;;;;;;;21.30;11.93;;;;;;;;;;4994143;28;20174;-60
2021/12/24 04:15:40;;;;;;;21.48;11.82;;;;;;;;;;4994246;28;20178;-60
2021/12/24 04:18:13;;;;;;;20.73;12.82;;;;;;;;;;4994164;28;20171;-59
2021/12/24 04:26:09;;;;;;;19.45;11.88;;;;;;;;;;4994201;28;20685;-60
2021/12/24 04:28:35;;;;;;;19.63;11.93;;;;;;;;;;4993970;28;20211;-59
2021/12/24 04:31:02;;;;;;;20.33;11.93;;;;;;;;;;4994420;28;20171;-60
2021/12/24 04:33:33;;;;;;;22.70;12.18;;;;;;;;;;4994226;28;20642;-59
2021/12/24 04:36:12;;;;;;;24.27;12.05;;;;;;;;;;4994311;28;20209;-58
2021/12/24 04:51:02;;;;;;;20.67;11.98;;;;;;;;;;4997685;28;20221;-59
2021/12/24 05:03:08;;;;;;;21.10;12.25;;;;;;;;;;4997848;28;20246;-59
2021/12/24 05:05:43;;;;;;;20.20;11.93;;;;;;;;;;4998057;28;20242;-60
2021/12/24 05:10:39;;;;;;;21.02;12.65;;;;;;;;;;4998348;28;20730;-60
2021/12/24 05:13:06;;;;;;;19.70;11.85;;;;;;;;;;4997764;28;20177;-60
2021/12/24 05:15:36;;;;;;;22.90;12.82;;;;;;;;;;4997740;28;20194;-60
2021/12/24 05:23:32;;;;;;;25.25;14.35;;;;;;;;;;4997291;28;20263;-60
2021/12/24 05:25:58;;;;;;;25.13;13.70;;;;;;;;;;4997374;28;20166;-60
2021/12/24 05:28:24;;;;;;;30.65;16.52;;;;;;;;;;4997202;28;20214;-59
2021/12/24 05:30:50;;;;;;;28.38;15.18;;;;;;;;;;4997360;28;20191;-59
2021/12/24 05:33:16;;;;;;;28.98;15.18;;;;;;;;;;4997152;28;20225;-60
2021/12/24 05:35:43;;;;;;;26.90;15.18;;;;;;;;;;4997393;28;20536;-59
2021/12/24 05:38:09;;;;;;;28.83;16.25;;;;;;;;;;4997159;28;20259;-59
2021/12/24 05:40:35;;;;;;;30.02;16.13;;;;;;;;;;4997105;28;20166;-60
2021/12/24 05:43:01;;;;;;;29.02;15.63;;;;;;;;;;4995976;28;20185;-60
2021/12/24 05:45:27;;;;;;;31.20;15.98;;;;;;;;;;4997014;28;20167;-60
2021/12/24 05:47:53;;;;;;;29.70;17.10;;;;;;;;;;4997031;28;20190;-58
2021/12/24 05:50:19;;;;;;;31.98;17.65;;;;;;;;;;4996972;28;20171;-59
2021/12/24 05:52:45;;;;;;;31.10;17.25;;;;;;;;;;4996492;28;20171;-59
2021/12/24 05:55:11;;;;;;;30.63;17.27;;;;;;;;;;4996768;28;20241;-58
2021/12/24 05:57:37;;;;;;;31.30;16.88;;;;;;;;;;4996980;28;20625;-60
2021/12/24 06:00:10;;;;;;;34.28;17.38;;;;;;;;;;4997162;28;20225;-60
2021/12/24 06:02:36;;;;;;;31.02;17.08;;;;;;;;;;4997022;28;20546;-59
2021/12/24 06:05:02;;;;;;;31.30;17.08;;;;;;;;;;4996481;28;20194;-61
2021/12/24 06:07:28;;;;;;;30.63;16.65;;;;;;;;;;4996438;28;20254;-60
2021/12/24 06:09:54;;;;;;;31.70;17.63;;;;;;;;;;4996627;28;20571;-59
2021/12/24 06:12:20;;;;;;;34.25;18.42;;;;;;;;;;4996580;28;20496;-60
2021/12/24 06:14:52;;;;;;;34.45;17.58;;;;;;;;;;4996713;28;20179;-59
2021/12/24 06:17:18;;;;;;;29.52;16.50;;;;;;;;;;4996866;28;20190;-60
2021/12/24 06:19:44;;;;;;;31.90;16.92;;;;;;;;;;4996206;28;20615;-60
2021/12/24 06:22:10;;;;;;;32.63;17.33;;;;;;;;;;4996315;28;20175;-58
2021/12/24 06:24:37;;;;;;;30.88;17.17;;;;;;;;;;4996370;28;20183;-59
2021/12/24 06:27:03;;;;;;;32.70;17.30;;;;;;;;;;4996848;28;20167;-59
2021/12/24 06:29:29;;;;;;;35.08;17.73;;;;;;;;;;4996244;28;20199;-59
2021/12/24 06:31:55;;;;;;;36.13;18.15;;;;;;;;;;4996586;28;20209;-59
2021/12/24 06:34:21;;;;;;;33.13;18.45;;;;;;;;;;4996218;28;20579;-59
2021/12/24 06:36:48;;;;;;;34.70;19.08;;;;;;;;;;4996533;28;20171;-59
2021/12/24 06:39:14;;;;;;;35.65;18.83;;;;;;;;;;4996532;28;20193;-58
2021/12/24 06:41:40;;;;;;;32.97;17.65;;;;;;;;;;4996090;28;20622;-60
2021/12/24 06:44:09;;;;;;;34.00;18.85;;;;;;;;;;4996061;28;20285;-59
2021/12/24 06:46:35;;;;;;;33.08;18.52;;;;;;;;;;4996421;28;20171;-59
2021/12/24 06:49:01;;;;;;;34.90;18.05;;;;;;;;;;4996080;28;20171;-60
2021/12/24 06:51:27;;;;;;;37.88;19.27;;;;;;;;;;4996175;28;20170;-59
2021/12/24 06:53:54;;;;;;;32.50;17.90;;;;;;;;;;4995806;28;20171;-60
2021/12/24 06:56:21;;;;;;;33.65;18.08;;;;;;;;;;4995916;28;20596;-59
2021/12/24 06:58:47;;;;;;;32.13;17.30;;;;;;;;;;4996083;28;20498;-59
2021/12/24 07:01:13;;;;;;;33.38;17.92;;;;;;;;;;4995833;28;20506;-60
2021/12/24 07:03:39;;;;;;;31.55;18.55;;;;;;;;;;4994781;28;20249;-59
2021/12/24 07:06:05;;;;;;;32.85;18.27;;;;;;;;;;4995965;28;20194;-59
2021/12/24 07:08:31;;;;;;;32.05;17.27;;;;;;;;;;4998057;28;20163;-60
2021/12/24 07:10:57;;;;;;;34.60;16.42;;;;;;;;;;4999375;28;20542;-60
2021/12/24 07:13:23;;;;;;;29.35;16.60;;;;;;;;;;4998727;28;20171;-60
2021/12/24 07:15:49;;;;;;;33.58;17.83;;;;;;;;;;5000417;28;20170;-61
2021/12/24 07:18:15;;;;;;;30.02;16.05;;;;;;;;;;5001250;28;20504;-60
2021/12/24 07:20:41;;;;;;;29.88;16.27;;;;;;;;;;5003065;28;20179;-60
2021/12/24 07:23:07;;;;;;;24.77;14.63;;;;;;;;;;5002775;28;20170;-59
2021/12/24 07:25:33;;;;;;;24.00;14.13;;;;;;;;;;5002984;28;20159;-60
2021/12/24 07:28:01;;;;;;;27.75;15.23;;;;;;;;;;5004483;28;20249;-59
2021/12/24 07:30:27;;;;;;;23.63;13.98;;;;;;;;;;5016308;28;20631;-60
2021/12/24 07:32:53;;;;;;;25.17;14.02;;;;;;;;;;5016509;28;20167;-60
2021/12/24 07:35:19;;;;;;;23.13;13.07;;;;;;;;;;5013782;28;20152;-60
2021/12/24 07:37:45;;;;;;;25.60;13.38;;;;;;;;;;5014345;28;20159;-58
2021/12/24 07:40:14;;;;;;;22.60;13.25;;;;;;;;;;5004932;28;20190;-59
2021/12/24 07:42:40;;;;;;;22.70;12.65;;;;;;;;;;5001973;28;20194;-61
2021/12/24 07:45:08;;;;;;;21.40;12.70;;;;;;;;;;4999703;28;20191;-60
2021/12/24 07:47:38;;;;;;;22.80;12.20;;;;;;;;;;4998378;28;20523;-61
2021/12/24 07:50:18;;;;;;;20.60;12.20;;;;;;;;;;4995011;28;20165;-60
2021/12/24 07:52:44;;;;;;;22.65;13.10;;;;;;;;;;4995109;28;20183;-60
2021/12/24 07:55:10;;;;;;;22.58;12.45;;;;;;;;;;4994564;28;20174;-59
2021/12/24 07:57:37;;;;;;;23.33;13.48;;;;;;;;;;4994741;28;20167;-59
2021/12/24 08:00:07;;;;;;;18.70;11.05;;;;;;;;;;4994493;28;20194;-59
2021/12/24 08:02:33;;;;;;;21.73;11.85;;;;;;;;;;4994709;28;20198;-58
2021/12/24 08:04:59;;;;;;;20.08;11.90;;;;;;;;;;4994665;28;20266;-60
2021/12/24 08:07:27;;;;;;;20.25;11.18;;;;;;;;;;4993627;28;20630;-59
2021/12/24 08:09:53;;;;;;;22.60;11.57;;;;;;;;;;4994466;28;20163;-59
2021/12/24 08:12:22;;;;;;;19.25;11.32;;;;;;;;;;4994949;28;20221;-59
2021/12/24 08:14:48;;;;;;;19.13;10.80;;;;;;;;;;4994142;28;20233;-59
2021/12/24 08:17:16;;;;;;;19.80;11.27;;;;;;;;;;4994552;28;20197;-59
2021/12/24 08:19:42;;;;;;;20.52;11.60;;;;;;;;;;4994652;28;20182;-59
2021/12/24 08:22:10;;;;;;;18.75;11.75;;;;;;;;;;4994293;28;20603;-59
2021/12/24 08:24:36;;;;;;;18.83;10.95;;;;;;;;;;4994247;28;20718;-59
2021/12/24 08:27:07;;;;;;;18.98;10.70;;;;;;;;;;4994606;28;20179;-60
2021/12/24 08:29:33;;;;;;;17.50;9.70;;;;;;;;;;4994401;28;20265;-60
2021/12/24 08:31:59;;;;;;;17.17;10.25;;;;;;;;;;4994322;28;20198;-60
2021/12/24 08:34:25;;;;;;;18.15;10.82;;;;;;;;;;4994688;28;20179;-60
2021/12/24 08:36:52;;;;;;;19.80;11.13;;;;;;;;;;4994430;28;20543;-60
2021/12/24 08:39:19;;;;;;;18.05;10.18;;;;;;;;;;4994831;28;20167;-58
2021/12/24 08:41:46;;;;;;;16.60;9.95;;;;;;;;;;4994452;28;20210;-58
2021/12/24 08:44:12;;;;;;;17.20;9.73;;;;;;;;;;4993940;28;20281;-60
2021/12/24 08:46:38;;;;;;;18.33;10.15;;;;;;;;;;4994057;28;20629;-60
2021/12/24 08:49:04;;;;;;;19.27;10.93;;;;;;;;;;4994302;28;20495;-59
2021/12/24 08:51:31;;;;;;;18.88;10.63;;;;;;;;;;4994322;28;20254;-59
2021/12/24 08:53:57;;;;;;;20.25;10.82;;;;;;;;;;4994468;28;20167;-60
2021/12/24 08:56:23;;;;;;;17.13;9.75;;;;;;;;;;4994108;28;20510;-59
2021/12/24 08:58:49;;;;;;;21.30;10.52;;;;;;;;;;4994351;28;20186;-59
2021/12/24 09:01:15;;;;;;;17.83;10.30;;;;;;;;;;4994468;28;20213;-59
2021/12/24 09:03:41;;;;;;;19.15;10.00;;;;;;;;;;4994801;28;20198;-59
2021/12/24 09:06:07;;;;;;;21.92;11.05;;;;;;;;;;4995202;28;20174;-60
2021/12/24 09:08:34;;;;;;;21.15;11.60;;;;;;;;;;4998113;28;20163;-56
2021/12/24 09:11:00;;;;;;;20.50;11.63;;;;;;;;;;4995037;28;20170;-59
2021/12/24 09:13:26;;;;;;;21.83;11.43;;;;;;;;;;4994552;28;20607;-60
2021/12/24 09:15:53;;;;;;;18.42;10.68;;;;;;;;;;4993820;28;20170;-60
2021/12/24 09:18:20;;;;;;;19.42;11.85;;;;;;;;;;4993978;28;20167;-59
2021/12/24 09:20:46;;;;;;;20.25;11.52;;;;;;;;;;4993994;28;20182;-60
2021/12/24 09:23:12;;;;;;;22.38;12.73;;;;;;;;;;4993992;28;20171;-60
2021/12/24 09:25:40;;;;;;;19.48;11.88;;;;;;;;;;4994181;28;20233;-59
2021/12/24 09:28:06;;;;;;;22.75;12.70;;;;;;;;;;4996991;28;20662;-59
2021/12/24 09:30:32;;;;;;;20.80;12.70;;;;;;;;;;4997692;28;20155;-59
2021/12/24 09:32:59;;;;;;;21.95;12.82;;;;;;;;;;4997442;28;20167;-59
2021/12/24 09:35:26;;;;;;;21.23;13.57;;;;;;;;;;4997446;28;20167;-60
2021/12/24 09:37:52;;;;;;;23.98;13.57;;;;;;;;;;4997260;28;20641;-59
2021/12/24 09:40:18;;;;;;;24.35;14.82;;;;;;;;;;4997503;28;20179;-59
2021/12/24 09:42:45;;;;;;;25.25;15.35;;;;;;;;;;4997181;28;20212;-59
2021/12/24 09:45:11;;;;;;;25.50;14.55;;;;;;;;;;4997322;28;20273;-58
2021/12/24 09:47:37;;;;;;;24.58;15.10;;;;;;;;;;4997178;28;20173;-59
2021/12/24 09:50:04;;;;;;;23.50;14.15;;;;;;;;;;4997180;28;20167;-59
2021/12/24 09:52:31;;;;;;;27.48;15.65;;;;;;;;;;4996909;28;20609;-59
2021/12/24 09:54:57;;;;;;;21.65;13.95;;;;;;;;;;4997269;28;20173;-59
2021/12/24 09:57:23;;;;;;;21.90;13.07;;;;;;;;;;4996991;28;20171;-59
2021/12/24 09:59:49;;;;;;;19.75;12.80;;;;;;;;;;4996996;28;20175;-59
2021/12/24 10:02:17;;;;;;;19.70;11.27;;;;;;;;;;4996986;28;20512;-60
2021/12/24 10:04:44;;;;;;;14.52;10.45;;;;;;;;;;4997356;28;20201;-60
2021/12/24 10:07:11;;;;;;;17.80;9.77;;;;;;;;;;4996894;28;20249;-60
2021/12/24 10:09:42;;;;;;;13.50;8.73;;;;;;;;;;4997139;28;20171;-60
2021/12/24 10:12:09;;;;;;;17.52;10.30;;;;;;;;;;4996508;28;20511;-60
2021/12/24 10:14:37;;;;;;;13.18;8.13;;;;;;;;;;4996987;28;20171;-59
2021/12/24 10:17:04;;;;;;;14.07;8.70;;;;;;;;;;4997166;28;20518;-59
2021/12/24 10:19:30;;;;;;;13.85;8.45;;;;;;;;;;4997103;28;20175;-59
2021/12/24 10:21:57;;;;;;;13.93;8.38;;;;;;;;;;4996863;28;20171;-59
2021/12/24 10:24:26;;;;;;;16.85;9.57;;;;;;;;;;4996722;28;20198;-58
2021/12/24 10:26:53;;;;;;;16.23;9.98;;;;;;;;;;4996932;28;20309;-57
2021/12/24 10:29:19;;;;;;;15.27;9.52;;;;;;;;;;4996726;28;20189;-60
2021/12/24 10:31:47;;;;;;;15.38;9.20;;;;;;;;;;4996471;28;20163;-59
2021/12/24 10:34:20;;;;;;;17.17;10.60;;;;;;;;;;4996400;28;20663;-59
2021/12/24 10:36:56;;;;;;;17.40;10.40;;;;;;;;;;4996324;28;20178;-59
2021/12/24 10:39:24;;;;;;;18.00;11.20;;;;;;;;;;4996014;28;20511;-59
2021/12/24 10:41:50;;;;;;;16.77;11.02;;;;;;;;;;4996292;28;20190;-59
2021/12/24 10:44:17;;;;;;;17.88;10.98;;;;;;;;;;4996028;28;20226;-59
2021/12/24 10:47:00;;;;;;;21.63;12.13;;;;;;;;;;4995898;28;20681;-59
2021/12/24 10:52:30;;;;;;;17.58;11.30;;;;;;;;;;4996175;28;20599;-59
2021/12/24 10:54:59;;;;;;;20.08;11.50;;;;;;;;;;4996083;28;20160;-59
2021/12/24 10:57:26;;;;;;;17.50;11.05;;;;;;;;;;4995847;28;20167;-59
2021/12/24 10:59:56;;;;;;;19.48;11.52;;;;;;;;;;4996204;28;20175;-59
2021/12/24 11:02:23;;;;;;;17.92;10.40;;;;;;;;;;4995060;28;20171;-59
2021/12/24 11:04:51;;;;;;;16.55;10.30;;;;;;;;;;4995889;28;20496;-58
2021/12/24 11:07:36;;;;;;;17.58;9.13;;;;;;;;;;4996044;28;20171;-57
2021/12/24 11:10:06;;;;;;;12.25;7.70;;;;;;;;;;4996100;28;20182;-59
2021/12/24 11:12:35;;;;;;;14.02;8.73;;;;;;;;;;4995594;28;20171;-59
2021/12/24 11:15:01;;;;;;;18.42;8.48;;;;;;;;;;4996036;28;20181;-59
2021/12/24 11:17:40;;;;;;;16.92;9.80;;;;;;;;;;4995093;28;20163;-58
2021/12/24 11:20:10;;;;;;;17.10;8.85;;;;;;;;;;4995201;28;20167;-58
2021/12/24 11:22:54;;;;;;;17.15;9.68;;;;;;;;;;4995256;28;20261;-58
2021/12/24 11:25:21;;;;;;;18.80;9.68;;;;;;;;;;4995148;28;20264;-58
2021/12/24 11:27:47;;;;;;;18.67;10.18;;;;;;;;;;4995055;28;20163;-59
2021/12/24 11:30:14;;;;;;;16.15;9.80;;;;;;;;;;4995323;28;20159;-60
2021/12/24 11:32:41;;;;;;;17.38;10.27;;;;;;;;;;4995443;28;20170;-60
2021/12/24 11:35:07;;;;;;;20.40;10.40;;;;;;;;;;4995149;28;20171;-60
2021/12/24 11:37:33;;;;;;;19.33;10.95;;;;;;;;;;4995017;28;20171;-59
2021/12/24 11:40:02;;;;;;;21.55;11.07;;;;;;;;;;4995270;28;20179;-59
2021/12/24 11:42:31;;;;;;;18.15;10.27;;;;;;;;;;4995568;28;20167;-59
2021/12/24 11:44:57;;;;;;;18.20;10.57;;;;;;;;;;4994869;28;20684;-60
2021/12/24 11:47:23;;;;;;;17.58;10.80;;;;;;;;;;4994827;28;20167;-60
2021/12/24 11:49:49;;;;;;;21.50;11.32;;;;;;;;;;4994408;28;20167;-60
2021/12/24 11:52:16;;;;;;;17.95;9.77;;;;;;;;;;4995410;28;20246;-60
2021/12/24 11:54:42;;;;;;;16.02;8.30;;;;;;;;;;4994757;28;20714;-59
2021/12/24 11:57:21;;;;;;;17.45;9.68;;;;;;;;;;4994803;28;20618;-60
2021/12/24 11:59:47;;;;;;;16.95;8.95;;;;;;;;;;4994767;28;20595;-58
2021/12/24 12:02:32;;;;;;;19.40;9.63;;;;;;;;;;4994814;28;20175;-60
2021/12/24 12:05:17;;;;;;;17.77;9.88;;;;;;;;;;4994309;28;20272;-59
2021/12/24 12:07:43;;;;;;;16.35;8.65;;;;;;;;;;4994353;28;20166;-60
2021/12/24 12:10:09;;;;;;;13.13;7.38;;;;;;;;;;4994721;28;20171;-59
2021/12/24 12:12:36;;;;;;;16.20;10.13;;;;;;;;;;4994498;28;20230;-60
2021/12/24 12:15:21;;;;;;;16.15;8.68;;;;;;;;;;4994477;28;20175;-60
2021/12/24 12:17:51;;;;;;;14.15;8.52;;;;;;;;;;4994118;28;20186;-59
2021/12/24 12:20:41;;;;;;;13.32;7.43;;;;;;;;;;4994586;28;20257;-59
2021/12/24 12:23:14;;;;;;;16.33;7.47;;;;;;;;;;4994092;28;20178;-59
2021/12/24 12:25:40;;;;;;;17.17;8.25;;;;;;;;;;4994473;28;20202;-59
2021/12/24 12:28:12;;;;;;;12.82;6.57;;;;;;;;;;4994167;28;20182;-60
2021/12/24 12:30:52;;;;;;;12.23;7.05;;;;;;;;;;4994655;28;20233;-59
2021/12/24 12:33:22;;;;;;;11.65;6.75;;;;;;;;;;4994524;28;20167;-59
2021/12/24 12:35:50;;;;;;;10.93;6.50;;;;;;;;;;4994284;28;20725;-59
2021/12/24 12:38:48;;;;;;;12.50;6.32;;;;;;;;;;4994190;28;20202;-60
2021/12/24 12:41:22;;;;;;;16.25;6.57;;;;;;;;;;4934346;29;20533;-58
2021/12/24 12:43:49;;;;;;;12.57;5.57;;;;;;;;;;4934096;29;20208;-57
2021/12/24 12:46:24;;;;;;;9.00;5.45;;;;;;;;;;4934487;29;20172;-60
2021/12/24 12:48:52;;;;;;;8.05;4.85;;;;;;;;;;4934193;29;20224;-59
2021/12/24 12:51:19;;;;;;;6.90;4.18;;;;;;;;;;4934180;29;20248;-59
2021/12/24 12:53:47;;;;;;;5.22;3.38;;;;;;;;;;4934396;29;20181;-57
2021/12/24 12:56:27;;;;;;;4.63;3.25;;;;;;;;;;4934371;29;20212;-57
2021/12/24 12:59:05;;;;;;;7.13;3.50;;;;;;;;;;4934686;29;20180;-58
2021/12/24 13:01:31;;;;;;;5.13;2.58;;;;;;;;;;4936421;29;20594;-59
2021/12/24 13:04:00;;;;;;;6.07;2.63;;;;;;;;;;4937610;29;20751;-59
2021/12/24 13:06:46;;;;;;;7.00;3.22;;;;;;;;;;4938323;29;20590;-59
2021/12/24 13:09:13;;;;;;;3.58;2.30;;;;;;;;;;4938147;29;20172;-58
2021/12/24 13:11:44;;;;;;;2.83;1.83;;;;;;;;;;4938150;29;20173;-58
2021/12/24 13:14:11;;;;;;;5.07;1.92;;;;;;;;;;4938086;29;20196;-60
2021/12/24 13:16:39;;;;;;;2.85;1.38;;;;;;;;;;4963958;28;20385;-60
2021/12/24 13:19:30;;;;;;;1.92;1.33;;;;;;;;;;4997992;28;20253;-60
2021/12/24 13:22:27;;;;;;;2.13;1.20;;;;;;;;;;4997686;28;20183;-59
2021/12/24 13:24:58;;;;;;;2.35;1.10;;;;;;;;;;4997279;28;20301;-56
2021/12/24 13:27:30;;;;;;;2.03;1.20;;;;;;;;;;4997945;28;20242;-59
2021/12/24 13:30:16;;;;;;;1.92;1.13;;;;;;;;;;4997283;28;20179;-59
2021/12/24 13:32:42;;;;;;;1.88;0.90;;;;;;;;;;4997866;28;20662;-57
2021/12/24 13:35:08;;;;;;;1.90;0.98;;;;;;;;;;4997273;28;20250;-59
2021/12/24 13:37:35;;;;;;;3.60;1.00;;;;;;;;;;4997416;28;20222;-58
2021/12/24 13:40:01;;;;;;;3.97;1.02;;;;;;;;;;4997419;28;20618;-59
2021/12/24 13:42:27;;;;;;;1.08;0.85;;;;;;;;;;4997345;28;20163;-58
2021/12/24 13:45:00;;;;;;;0.85;0.77;;;;;;;;;;4997161;28;20693;-60
2021/12/24 13:47:50;;;;;;;1.10;0.73;;;;;;;;;;4997396;28;20155;-61
2021/12/24 13:55:31;;;;;;;0.80;0.70;;;;;;;;;;4997501;28;20209;-60
2021/12/24 13:57:59;;;;;;;0.80;0.70;;;;;;;;;;4997080;28;20178;-60
2021/12/24 14:00:25;;;;;;;0.77;0.60;;;;;;;;;;4996824;28;20179;-60
2021/12/24 14:02:55;;;;;;;0.90;0.75;;;;;;;;;;4996901;28;20515;-60
2021/12/24 14:05:22;;;;;;;0.73;0.60;;;;;;;;;;4996648;28;20238;-60
2021/12/24 14:08:03;;;;;;;2.97;0.75;;;;;;;;;;4995934;28;20171;-61
2021/12/24 14:10:28;;;;;;;0.88;0.70;;;;;;;;;;4997171;28;20163;-59
2021/12/24 14:13:02;;;;;;;0.50;0.50;;;;;;;;;;4996161;28;20617;-59
2021/12/24 14:15:29;;;;;;;2.05;0.80;;;;;;;;;;4996998;28;20156;-60
2021/12/24 14:18:20;;;;;;;1.02;0.55;;;;;;;;;;4997032;28;20189;-59
2021/12/24 14:21:44;;;;;;;1.58;0.50;;;;;;;;;;4996325;28;20253;-59
2021/12/24 14:23:46;;;;;;;0.60;0.50;;;;;;;;;;4996025;28;20206;-59
2021/12/24 14:26:12;;;;;;;7.15;0.75;;;;;;;;;;4996493;28;20237;-58
2021/12/24 14:28:49;;;;;;;0.90;0.30;;;;;;;;;;4996171;28;20187;-57
2021/12/24 14:31:14;;;;;;;4.00;0.40;;;;;;;;;;4996183;28;20170;-60
2021/12/24 14:33:46;;;;;;;1.20;0.57;;;;;;;;;;4996122;28;20609;-59
2021/12/24 14:36:19;;;;;;;2.38;0.80;;;;;;;;;;4996344;28;20163;-59
2021/12/24 14:38:45;;;;;;;0.88;0.40;;;;;;;;;;4997383;28;20167;-58
2021/12/24 14:41:16;;;;;;;2.15;0.68;;;;;;;;;;4997979;28;20314;-58
2021/12/24 14:43:42;;;;;;;2.75;0.90;;;;;;;;;;4998432;28;20260;-59
2021/12/24 14:46:08;;;;;;;0.80;0.63;;;;;;;;;;4997480;28;20249;-59
2021/12/24 14:48:36;;;;;;;0.93;0.50;;;;;;;;;;4998900;28;20494;-59
2021/12/24 14:51:09;;;;;;;3.00;0.55;;;;;;;;;;5000172;28;20250;-60
2021/12/24 14:53:38;;;;;;;2.70;0.57;;;;;;;;;;5000857;28;20167;-60
2021/12/24 14:56:06;;;;;;;1.30;0.52;;;;;;;;;;4999590;28;20163;-59
2021/12/24 14:58:46;;;;;;;1.05;0.50;;;;;;;;;;4997502;28;20583;-59
2021/12/24 15:01:18;;;;;;;1.90;0.60;;;;;;;;;;4997266;28;20541;-59
2021/12/24 15:03:46;;;;;;;1.10;0.57;;;;;;;;;;4997271;28;20199;-59
2021/12/24 15:06:15;;;;;;;0.90;0.43;;;;;;;;;;4997058;28;20253;-60
2021/12/24 15:08:41;;;;;;;3.25;0.60;;;;;;;;;;4997830;28;20195;-60
2021/12/24 15:11:17;;;;;;;1.42;0.50;;;;;;;;;;4997502;28;20170;-60
2021/12/24 15:13:49;;;;;;;1.20;0.60;;;;;;;;;;4997525;28;20210;-60
2021/12/24 15:16:18;;;;;;;2.10;0.50;;;;;;;;;;5010358;28;20222;-60
2021/12/24 15:18:46;;;;;;;0.63;0.50;;;;;;;;;;5015912;28;20157;-59
2021/12/24 15:21:12;;;;;;;1.00;0.60;;;;;;;;;;5014676;28;20179;-60
2021/12/24 15:23:38;;;;;;;2.45;0.50;;;;;;;;;;5015468;28;20186;-60
2021/12/24 15:26:04;;;;;;;0.70;0.45;;;;;;;;;;5014707;28;20178;-60
2021/12/24 15:28:30;;;;;;;1.75;0.30;;;;;;;;;;5007650;28;20193;-59
2021/12/24 15:30:56;;;;;;;0.70;0.28;;;;;;;;;;4995193;28;20178;-59
2021/12/24 15:33:22;;;;;;;0.60;0.47;;;;;;;;;;4995019;28;20199;-59
2021/12/24 15:35:49;;;;;;;2.75;0.47;;;;;;;;;;4995105;28;20178;-60
2021/12/24 15:38:15;;;;;;;0.85;0.30;;;;;;;;;;4994807;28;20606;-59
2021/12/24 15:40:42;;;;;;;1.10;0.40;;;;;;;;;;4994036;28;20171;-60
2021/12/24 15:43:08;;;;;;;1.83;0.40;;;;;;;;;;4994728;28;20174;-59
2021/12/24 15:45:35;;;;;;;1.67;0.47;;;;;;;;;;4994916;28;20293;-59
2021/12/24 15:48:01;;;;;;;2.50;1.10;;;;;;;;;;4994759;28;20180;-59
2021/12/24 15:50:28;;;;;;;1.05;0.32;;;;;;;;;;4994674;28;20171;-59
2021/12/24 15:52:54;;;;;;;2.15;0.45;;;;;;;;;;4995180;28;20305;-59
2021/12/24 15:55:20;;;;;;;0.68;0.30;;;;;;;;;;4995599;28;20200;-58
2021/12/24 15:57:46;;;;;;;2.67;0.80;;;;;;;;;;4994434;28;20167;-60
2021/12/24 16:00:12;;;;;;;1.23;0.35;;;;;;;;;;4994970;28;20236;-59
2021/12/24 16:02:38;;;;;;;0.90;0.40;;;;;;;;;;4994884;28;20515;-59
2021/12/24 16:05:04;;;;;;;0.77;0.40;;;;;;;;;;4993517;28;20237;-59